OOCL New Zealand — VRFS2 — position and weather

sailwx.info

Track history (hours):
 
Tides and Currents Weather Stations Pressure Air Temp Water Temp Dewpoint Dewpoint Depression Visibility Wind Speed Wind Dir Waves Ship Positions

OOCL New Zealand

Last reported at 2018-Jun-22 08:11 UTC. Time now 2018-Jun-24 05:01 UTC.
Position N 35°05' E 139°43'.

Length 260 m; draft 9.8 m.

Type: Cargo ship. MMSI: 477612200.

Date/timePositionNaut miles runAvg speedWind from/ knotsBaromVisibWave heightAir tempDewpointWater temp
2018-Jun-22 08:11N 35°05' E 139°43'313.1
2018-Jun-22 07:57N 35°08' E 139°44'511.9
2018-Jun-22 07:30N 35°13' E 139°46'613.0
2018-Jun-22 07:01N 35°19' E 139°43'714.3
2018-Jun-22 06:30N 35°26' E 139°42'1 2.1
2018-Jun-22 06:00N 35°26' E 139°41'0 0.0
2018-Jun-22 05:29N 35°26' E 139°41'0 0.0
2018-Jun-22 04:59N 35°26' E 139°41'0 0.0
2018-Jun-22 04:29N 35°26' E 139°41'0 0.0
2018-Jun-22 03:59N 35°26' E 139°41'0 0.0
2018-Jun-22 03:29N 35°26' E 139°41'0 0.0
2018-Jun-22 02:59N 35°26' E 139°41'0 0.0
2018-Jun-22 02:29N 35°26' E 139°41'0 0.0
2018-Jun-22 01:59N 35°26' E 139°41'0 0.0
2018-Jun-22 01:29N 35°26' E 139°41'0 0.0
2018-Jun-22 00:59N 35°26' E 139°41'0 0.0
2018-Jun-22 00:29N 35°26' E 139°41'0 0.0
2018-Jun-21 23:59N 35°26' E 139°41'0 0.0
2018-Jun-21 23:29N 35°26' E 139°41'0 0.0
2018-Jun-21 23:00N 35°26' E 139°41'2 3.9
2018-Jun-21 22:30N 35°26' E 139°43'5 9.7
2018-Jun-21 22:00N 35°28' E 139°49'610.7
2018-Jun-21 21:28N 35°34' E 139°50'4 8.0
2018-Jun-21 21:00N 35°36' E 139°47'0 0.2
2018-Jun-21 20:27N 35°37' E 139°47'0 0.0
2018-Jun-21 19:51N 35°37' E 139°47'0 0.0
2018-Jun-21 19:27N 35°37' E 139°47'0 0.0
2018-Jun-21 18:21N 35°37' E 139°47'0 0.0
2018-Jun-21 17:57N 35°37' E 139°47'0 0.0
2018-Jun-21 17:27N 35°37' E 139°47'0 0.0
2018-Jun-21 16:45N 35°37' E 139°47'0 0.0
2018-Jun-21 16:27N 35°37' E 139°47'0 0.0
2018-Jun-21 15:57N 35°37' E 139°47'0 0.0
2018-Jun-21 15:27N 35°37' E 139°47'0 0.2
2018-Jun-21 15:00N 35°37' E 139°47'0 0.0
2018-Jun-21 11:42N 35°37' E 139°47'0 0.0
2018-Jun-21 11:24N 35°37' E 139°47'0 0.0
2018-Jun-21 11:00N 35°37' E 139°47'0 0.0
2018-Jun-21 10:18N 35°37' E 139°47'0 1.2
2018-Jun-21 10:00N 35°36' E 139°47'3 6.4
2018-Jun-21 09:31N 35°34' E 139°50'3 6.2
2018-Jun-21 09:00N 35°32' E 139°52'3 6.0
2018-Jun-21 08:31N 35°29' E 139°52'5 9.8
2018-Jun-21 08:01N 35°25' E 139°47'712.9
2018-Jun-21 07:30N 35°19' E 139°44'612.4
2018-Jun-21 07:01N 35°14' E 139°47'611.6
2018-Jun-21 06:31N 35°08' E 139°46'610.9
2018-Jun-21 05:59N 35°03' E 139°43'23313.7
2018-Jun-20 12:58N 33°28' E 135°25'1116.7
2018-Jun-20 12:18N 33°36' E 135°16'515.7
2018-Jun-20 11:57N 33°40' E 135°11'715.4
2018-Jun-20 11:30N 33°45' E 135°05'815.8
2018-Jun-20 11:00N 33°52' E 134°60'816.0
2018-Jun-20 10:30N 33°60' E 134°58'816.2
2018-Jun-20 10:00N 34°08' E 134°58'714.0
2018-Jun-20 09:30N 34°15' E 134°58'918.6
2018-Jun-20 09:01N 34°24' E 135°01'1019.5
2018-Jun-20 08:30N 34°30' E 135°10'918.2
2018-Jun-20 08:00N 34°38' E 135°16'2 3.9
2018-Jun-20 07:30N 34°39' E 135°15'0 0.0
2018-Jun-20 06:57N 34°39' E 135°15'0 0.0
2018-Jun-20 06:27N 34°39' E 135°15'0 0.0
2018-Jun-20 05:57N 34°39' E 135°15'0 0.0
2018-Jun-20 05:30N 34°39' E 135°15'0 0.0
2018-Jun-20 05:00N 34°39' E 135°15'0 0.0
2018-Jun-20 04:30N 34°39' E 135°15'0 0.0
2018-Jun-20 03:57N 34°39' E 135°15'0 0.0
2018-Jun-20 03:27N 34°39' E 135°15'0 0.0
2018-Jun-20 02:57N 34°39' E 135°15'0 0.0
2018-Jun-20 02:27N 34°39' E 135°15'0 0.1
2018-Jun-20 02:00N 34°39' E 135°15'0 0.0
2018-Jun-20 01:30N 34°39' E 135°15'0 0.0
2018-Jun-20 00:57N 34°39' E 135°15'0 0.0
2018-Jun-20 00:27N 34°39' E 135°15'0 0.0
2018-Jun-19 23:57N 34°39' E 135°15'0 0.0
2018-Jun-19 23:21N 34°39' E 135°15'0 0.0
2018-Jun-19 22:57N 34°39' E 135°15'1 3.4
2018-Jun-19 22:31N 34°39' E 135°16'4 7.9
2018-Jun-19 22:00N 34°37' E 135°20'510.0
2018-Jun-19 21:29N 34°38' E 135°26'0 0.0
2018-Jun-19 18:14N 34°38' E 135°26'0 0.0
2018-Jun-19 17:59N 34°38' E 135°26'0 0.0
2018-Jun-19 17:26N 34°38' E 135°26'0 0.0
2018-Jun-19 16:56N 34°38' E 135°26'0 0.0
2018-Jun-19 16:29N 34°38' E 135°26'0 0.0
2018-Jun-19 15:56N 34°38' E 135°26'0 0.0
2018-Jun-19 15:08N 34°38' E 135°26'0 0.0
2018-Jun-19 13:38N 34°38' E 135°26'0 0.0
2018-Jun-19 13:26N 34°38' E 135°26'0 0.0
2018-Jun-19 12:44N 34°38' E 135°26'0 0.5
2018-Jun-19 12:30N 34°38' E 135°26'2 3.7
2018-Jun-19 12:00N 34°39' E 135°24'612.2
2018-Jun-19 11:30N 34°35' E 135°18'917.6
2018-Jun-19 11:01N 34°30' E 135°09'918.9
2018-Jun-19 10:31N 34°23' E 135°03'917.5
2018-Jun-19 10:01N 34°14' E 134°60'713.4
2018-Jun-19 09:30N 34°07' E 134°59'815.3
2018-Jun-19 09:00N 33°60' E 134°57'714.6
2018-Jun-19 08:30N 33°53' E 134°55'714.2
2018-Jun-19 08:00N 33°46' E 134°51'914.3
2018-Jun-19 07:20N 33°39' E 134°45'  
Track history (hours):
 
Tides and Currents Weather Stations Pressure Air Temp Water Temp Dewpoint Dewpoint Depression Visibility Wind Speed Wind Dir Waves Ship Positions

OOCL New Zealand

Last reported at 2018-Jun-22 08:11 UTC. Time now 2018-Jun-24 05:01 UTC.
Position N 35°05' E 139°43'.

Length 260 m; draft 9.8 m.

Type: Cargo ship. MMSI: 477612200.

Date/timePositionNaut miles runAvg speedWind from/ knotsBaromVisibWave heightAir tempDewpointWater temp
2018-Jun-22 08:11N 35°05' E 139°43'313.1
2018-Jun-22 07:57N 35°08' E 139°44'511.9
2018-Jun-22 07:30N 35°13' E 139°46'613.0
2018-Jun-22 07:01N 35°19' E 139°43'714.3
2018-Jun-22 06:30N 35°26' E 139°42'1 2.1
2018-Jun-22 06:00N 35°26' E 139°41'0 0.0
2018-Jun-22 05:29N 35°26' E 139°41'0 0.0
2018-Jun-22 04:59N 35°26' E 139°41'0 0.0
2018-Jun-22 04:29N 35°26' E 139°41'0 0.0
2018-Jun-22 03:59N 35°26' E 139°41'0 0.0
2018-Jun-22 03:29N 35°26' E 139°41'0 0.0
2018-Jun-22 02:59N 35°26' E 139°41'0 0.0
2018-Jun-22 02:29N 35°26' E 139°41'0 0.0
2018-Jun-22 01:59N 35°26' E 139°41'0 0.0
2018-Jun-22 01:29N 35°26' E 139°41'0 0.0
2018-Jun-22 00:59N 35°26' E 139°41'0 0.0
2018-Jun-22 00:29N 35°26' E 139°41'0 0.0
2018-Jun-21 23:59N 35°26' E 139°41'0 0.0
2018-Jun-21 23:29N 35°26' E 139°41'0 0.0
2018-Jun-21 23:00N 35°26' E 139°41'2 3.9
2018-Jun-21 22:30N 35°26' E 139°43'5 9.7
2018-Jun-21 22:00N 35°28' E 139°49'610.7
2018-Jun-21 21:28N 35°34' E 139°50'4 8.0
2018-Jun-21 21:00N 35°36' E 139°47'0 0.2
2018-Jun-21 20:27N 35°37' E 139°47'0 0.0
2018-Jun-21 19:51N 35°37' E 139°47'0 0.0
2018-Jun-21 19:27N 35°37' E 139°47'0 0.0
2018-Jun-21 18:21N 35°37' E 139°47'0 0.0
2018-Jun-21 17:57N 35°37' E 139°47'0 0.0
2018-Jun-21 17:27N 35°37' E 139°47'0 0.0
2018-Jun-21 16:45N 35°37' E 139°47'0 0.0
2018-Jun-21 16:27N 35°37' E 139°47'0 0.0
2018-Jun-21 15:57N 35°37' E 139°47'0 0.0
2018-Jun-21 15:27N 35°37' E 139°47'0 0.2
2018-Jun-21 15:00N 35°37' E 139°47'0 0.0
2018-Jun-21 11:42N 35°37' E 139°47'0 0.0
2018-Jun-21 11:24N 35°37' E 139°47'0 0.0
2018-Jun-21 11:00N 35°37' E 139°47'0 0.0
2018-Jun-21 10:18N 35°37' E 139°47'0 1.2
2018-Jun-21 10:00N 35°36' E 139°47'3 6.4
2018-Jun-21 09:31N 35°34' E 139°50'3 6.2
2018-Jun-21 09:00N 35°32' E 139°52'3 6.0
2018-Jun-21 08:31N 35°29' E 139°52'5 9.8
2018-Jun-21 08:01N 35°25' E 139°47'712.9
2018-Jun-21 07:30N 35°19' E 139°44'612.4
2018-Jun-21 07:01N 35°14' E 139°47'611.6
2018-Jun-21 06:31N 35°08' E 139°46'610.9
2018-Jun-21 05:59N 35°03' E 139°43'23313.7
2018-Jun-20 12:58N 33°28' E 135°25'1116.7
2018-Jun-20 12:18N 33°36' E 135°16'515.7
2018-Jun-20 11:57N 33°40' E 135°11'715.4
2018-Jun-20 11:30N 33°45' E 135°05'815.8
2018-Jun-20 11:00N 33°52' E 134°60'816.0
2018-Jun-20 10:30N 33°60' E 134°58'816.2
2018-Jun-20 10:00N 34°08' E 134°58'714.0
2018-Jun-20 09:30N 34°15' E 134°58'918.6
2018-Jun-20 09:01N 34°24' E 135°01'1019.5
2018-Jun-20 08:30N 34°30' E 135°10'918.2
2018-Jun-20 08:00N 34°38' E 135°16'2 3.9
2018-Jun-20 07:30N 34°39' E 135°15'0 0.0
2018-Jun-20 06:57N 34°39' E 135°15'0 0.0
2018-Jun-20 06:27N 34°39' E 135°15'0 0.0
2018-Jun-20 05:57N 34°39' E 135°15'0 0.0
2018-Jun-20 05:30N 34°39' E 135°15'0 0.0
2018-Jun-20 05:00N 34°39' E 135°15'0 0.0
2018-Jun-20 04:30N 34°39' E 135°15'0 0.0
2018-Jun-20 03:57N 34°39' E 135°15'0 0.0
2018-Jun-20 03:27N 34°39' E 135°15'0 0.0
2018-Jun-20 02:57N 34°39' E 135°15'0 0.0
2018-Jun-20 02:27N 34°39' E 135°15'0 0.1
2018-Jun-20 02:00N 34°39' E 135°15'0 0.0
2018-Jun-20 01:30N 34°39' E 135°15'0 0.0
2018-Jun-20 00:57N 34°39' E 135°15'0 0.0
2018-Jun-20 00:27N 34°39' E 135°15'0 0.0
2018-Jun-19 23:57N 34°39' E 135°15'0 0.0
2018-Jun-19 23:21N 34°39' E 135°15'0 0.0
2018-Jun-19 22:57N 34°39' E 135°15'1 3.4
2018-Jun-19 22:31N 34°39' E 135°16'4 7.9
2018-Jun-19 22:00N 34°37' E 135°20'510.0
2018-Jun-19 21:29N 34°38' E 135°26'0 0.0
2018-Jun-19 18:14N 34°38' E 135°26'0 0.0
2018-Jun-19 17:59N 34°38' E 135°26'0 0.0
2018-Jun-19 17:26N 34°38' E 135°26'0 0.0
2018-Jun-19 16:56N 34°38' E 135°26'0 0.0
2018-Jun-19 16:29N 34°38' E 135°26'0 0.0
2018-Jun-19 15:56N 34°38' E 135°26'0 0.0
2018-Jun-19 15:08N 34°38' E 135°26'0 0.0
2018-Jun-19 13:38N 34°38' E 135°26'0 0.0
2018-Jun-19 13:26N 34°38' E 135°26'0 0.0
2018-Jun-19 12:44N 34°38' E 135°26'0 0.5
2018-Jun-19 12:30N 34°38' E 135°26'2 3.7
2018-Jun-19 12:00N 34°39' E 135°24'612.2
2018-Jun-19 11:30N 34°35' E 135°18'917.6
2018-Jun-19 11:01N 34°30' E 135°09'918.9
2018-Jun-19 10:31N 34°23' E 135°03'917.5
2018-Jun-19 10:01N 34°14' E 134°60'713.4
2018-Jun-19 09:30N 34°07' E 134°59'815.3
2018-Jun-19 09:00N 33°60' E 134°57'714.6
2018-Jun-19 08:30N 33°53' E 134°55'714.2
2018-Jun-19 08:00N 33°46' E 134°51'914.3
2018-Jun-19 07:20N 33°39' E 134°45'  

Dump ship's entire track history